Time;durP1;ratioP1;P1;durP2;ratioP2;P2;SDS_P1;SDS_P2;PMS_P1;PMS_P2;Temp;Humidity;BMP_temperature;BMP_pressure;BME280_temperature;BME280_humidity;BME280_pressure;Samples;Min_cycle;Max_cycle;Signal;HPM_P1;HPM_P2
2021/07/27 00:01:52;;;;;;;36.93;20.60;;;17.00;99.90;;;;;;5077437;28;20333;-65
2021/07/27 00:04:20;;;;;;;31.07;18.47;;;16.90;99.90;;;;;;5077724;28;20191;-66
2021/07/27 00:06:49;;;;;;;38.27;20.03;;;16.90;99.90;;;;;;5077902;28;20432;-66
2021/07/27 00:09:19;;;;;;;38.27;19.50;;;16.80;99.90;;;;;;5082012;28;20180;-66
2021/07/27 00:11:47;;;;;;;37.40;20.00;;;16.70;99.90;;;;;;5079310;28;20189;-66
2021/07/27 00:14:17;;;;;;;36.53;20.67;;;16.70;99.90;;;;;;5074627;28;20448;-66
2021/07/27 00:16:45;;;;;;;33.37;19.30;;;16.60;99.90;;;;;;5079966;28;20248;-66
2021/07/27 00:19:13;;;;;;;41.40;21.07;;;16.50;99.90;;;;;;5080571;28;20208;-66
2021/07/27 00:21:41;;;;;;;36.17;21.67;;;16.50;99.90;;;;;;5081242;28;20435;-65
2021/07/27 00:24:10;;;;;;;44.23;22.70;;;16.50;99.90;;;;;;5078960;28;20174;-66
2021/07/27 00:26:39;;;;;;;42.10;22.27;;;16.40;99.90;;;;;;5079355;28;20180;-66
2021/07/27 00:29:07;;;;;;;39.27;22.70;;;16.40;99.90;;;;;;5081114;28;20176;-66
2021/07/27 00:31:37;;;;;;;45.20;22.40;;;16.30;99.90;;;;;;5080210;28;20184;-66
2021/07/27 00:34:05;;;;;;;45.90;22.60;;;16.30;99.90;;;;;;5080253;28;20184;-66
2021/07/27 00:36:33;;;;;;;45.90;22.20;;;16.30;99.90;;;;;;5079790;28;20180;-66
2021/07/27 00:39:02;;;;;;;55.80;23.43;;;16.30;99.90;;;;;;5077639;28;20196;-66
2021/07/27 00:41:30;;;;;;;42.23;22.97;;;16.20;99.90;;;;;;5088467;28;20186;-66
2021/07/27 00:43:59;;;;;;;45.50;24.90;;;16.20;99.90;;;;;;5078439;28;20173;-66
2021/07/27 00:46:29;;;;;;;48.47;22.63;;;16.20;99.90;;;;;;5092938;28;20231;-66
2021/07/27 00:48:59;;;;;;;46.00;23.40;;;16.20;99.90;;;;;;5077468;28;20181;-66
2021/07/27 00:51:29;;;;;;;51.60;24.87;;;16.10;99.90;;;;;;5080247;28;20235;-65
2021/07/27 00:53:58;;;;;;;56.67;24.43;;;16.10;99.90;;;;;;5079777;28;20815;-65
2021/07/27 00:56:27;;;;;;;52.93;25.03;;;16.00;99.90;;;;;;5077670;28;20188;-66
2021/07/27 00:58:55;;;;;;;49.63;24.70;;;16.00;99.90;;;;;;5082096;28;20229;-66
2021/07/27 01:01:24;;;;;;;50.43;24.37;;;16.00;99.90;;;;;;5078693;28;20176;-66
2021/07/27 01:03:53;;;;;;;55.87;26.80;;;15.90;99.90;;;;;;5076427;28;20318;-66
2021/07/27 01:06:22;;;;;;;56.20;25.50;;;15.90;99.90;;;;;;5078012;28;20176;-66
2021/07/27 01:08:52;;;;;;;47.00;24.40;;;15.90;99.90;;;;;;5077721;28;20184;-66
2021/07/27 01:11:26;;;;;;;55.37;27.03;;;15.80;99.90;;;;;;5081672;28;20445;-66
2021/07/27 01:13:54;;;;;;;51.70;26.23;;;15.80;99.90;;;;;;5080593;28;20230;-65
2021/07/27 01:16:27;;;;;;;52.80;24.77;;;15.80;99.90;;;;;;5076337;28;20315;-66
2021/07/27 01:19:00;;;;;;;56.37;26.07;;;15.80;99.90;;;;;;5078730;28;20173;-66
2021/07/27 01:38:16;;;;;;;54.43;26.63;;;15.70;99.90;;;;;;5079901;28;20359;-65
2021/07/27 01:40:50;;;;;;;55.87;27.47;;;15.70;99.90;;;;;;5076812;28;20184;-66
2021/07/27 01:43:19;;;;;;;51.60;27.07;;;15.70;99.90;;;;;;5079551;28;20198;-66
2021/07/27 01:45:48;;;;;;;55.27;26.77;;;15.70;99.90;;;;;;5077018;28;20180;-66
2021/07/27 01:48:16;;;;;;;59.63;27.60;;;15.70;99.90;;;;;;5076548;28;20275;-65
2021/07/27 01:50:47;;;;;;;60.23;27.67;;;15.60;99.90;;;;;;5077056;28;20213;-66
2021/07/27 01:53:26;;;;;;;53.53;27.80;;;15.70;99.90;;;;;;5079866;28;20200;-66
2021/07/27 01:55:56;;;;;;;63.90;28.17;;;15.70;99.90;;;;;;5077217;28;20235;-66
2021/07/27 01:58:25;;;;;;;61.30;28.67;;;15.70;99.90;;;;;;5078042;28;20187;-66
2021/07/27 02:00:53;;;;;;;54.80;27.87;;;15.70;99.90;;;;;;5075744;28;20204;-66
2021/07/27 02:03:23;;;;;;;55.50;27.70;;;15.60;99.90;;;;;;5076408;28;20168;-66
2021/07/27 02:05:51;;;;;;;57.60;28.23;;;15.60;99.90;;;;;;5077217;28;20372;-66
2021/07/27 02:08:21;;;;;;;58.20;28.30;;;15.60;99.90;;;;;;5075173;28;20434;-66
2021/07/27 02:10:52;;;;;;;54.40;27.37;;;15.60;99.90;;;;;;5075729;28;20193;-66
2021/07/27 02:13:27;;;;;;;54.53;27.50;;;15.60;99.90;;;;;;5076150;28;20471;-66
2021/07/27 02:16:08;;;;;;;57.73;27.77;;;15.60;99.90;;;;;;5077088;28;20683;-66
2021/07/27 02:18:36;;;;;;;60.43;27.57;;;15.60;99.90;;;;;;5081455;28;20184;-66
2021/07/27 02:21:04;;;;;;;53.67;27.27;;;15.60;99.90;;;;;;5076761;28;20419;-66
2021/07/27 02:23:32;;;;;;;59.00;27.33;;;15.50;99.90;;;;;;5079561;28;20184;-66
2021/07/27 02:26:02;;;;;;;61.33;28.90;;;15.50;99.90;;;;;;5078636;28;20314;-66
2021/07/27 02:28:32;;;;;;;54.53;26.97;;;15.50;99.90;;;;;;5110970;28;20181;-65
2021/07/27 02:31:02;;;;;;;59.63;28.50;;;15.50;99.90;;;;;;5077515;28;20181;-66
2021/07/27 02:33:35;;;;;;;58.70;27.87;;;15.50;99.90;;;;;;5079006;28;20306;-66
2021/07/27 02:36:03;;;;;;;53.97;27.23;;;15.50;99.90;;;;;;5079652;28;20177;-66
2021/07/27 02:38:35;;;;;;;56.50;28.40;;;15.40;99.90;;;;;;5075910;28;20299;-66
2021/07/27 02:41:04;;;;;;;62.77;28.97;;;15.40;99.90;;;;;;5076397;28;20172;-66
2021/07/27 02:43:33;;;;;;;60.13;28.93;;;15.40;99.90;;;;;;5077117;28;20176;-66
2021/07/27 02:46:02;;;;;;;60.50;28.33;;;15.40;99.90;;;;;;5078153;28;20240;-66
2021/07/27 02:48:30;;;;;;;60.63;28.47;;;15.40;99.90;;;;;;5076262;28;20377;-66
2021/07/27 02:51:02;;;;;;;61.50;29.57;;;15.40;99.90;;;;;;5074567;28;20295;-66
2021/07/27 02:53:31;;;;;;;62.20;28.67;;;15.40;99.90;;;;;;5077567;28;20425;-65
2021/07/27 02:56:00;;;;;;;61.77;28.63;;;15.40;99.90;;;;;;5080661;28;20338;-66
2021/07/27 02:58:33;;;;;;;60.67;28.97;;;15.40;99.90;;;;;;5088983;28;20172;-66
2021/07/27 03:01:03;;;;;;;60.83;28.87;;;15.40;99.90;;;;;;5079891;28;20184;-66
2021/07/27 03:03:32;;;;;;;55.37;26.83;;;15.40;99.90;;;;;;5080131;28;20176;-66
2021/07/27 03:06:03;;;;;;;55.40;27.37;;;15.40;99.90;;;;;;5078621;28;20484;-66
2021/07/27 03:08:48;;;;;;;64.93;30.30;;;15.40;99.90;;;;;;5082037;28;20176;-67
2021/07/27 03:11:17;;;;;;;60.53;29.37;;;15.30;99.90;;;;;;5080619;28;20184;-66
2021/07/27 03:13:47;;;;;;;59.50;29.27;;;15.40;99.90;;;;;;5078516;28;20180;-65
2021/07/27 03:16:16;;;;;;;62.87;29.17;;;15.30;99.90;;;;;;5079597;28;20235;-66
2021/07/27 03:18:46;;;;;;;64.83;28.43;;;15.30;99.90;;;;;;5082106;28;20183;-66
2021/07/27 03:21:14;;;;;;;59.17;27.53;;;15.30;99.90;;;;;;5076702;28;20180;-66
2021/07/27 03:23:42;;;;;;;51.83;27.33;;;15.40;99.90;;;;;;5081820;28;20184;-66
2021/07/27 03:26:10;;;;;;;58.63;28.40;;;15.40;99.90;;;;;;5077549;28;20226;-66
2021/07/27 03:28:42;;;;;;;52.77;27.50;;;15.30;99.90;;;;;;5080996;28;20183;-65
2021/07/27 03:31:11;;;;;;;61.07;29.00;;;15.30;99.90;;;;;;5076412;28;20266;-65
2021/07/27 03:33:39;;;;;;;55.43;28.50;;;15.30;99.90;;;;;;5082523;28;20183;-66
2021/07/27 03:36:18;;;;;;;62.17;28.87;;;15.30;99.90;;;;;;5080671;28;20176;-65
2021/07/27 03:38:51;;;;;;;57.77;28.40;;;15.40;99.90;;;;;;5094223;28;20210;-66
2021/07/27 03:41:20;;;;;;;57.93;28.13;;;15.40;99.90;;;;;;5063665;28;20176;-67
2021/07/27 03:44:00;;;;;;;64.67;29.30;;;15.40;99.90;;;;;;5079306;28;20184;-66
2021/07/27 03:46:31;;;;;;;61.63;30.33;;;15.40;99.90;;;;;;5081707;28;20282;-66
2021/07/27 03:49:25;;;;;;;59.27;29.17;;;15.40;99.90;;;;;;5077906;28;20211;-65
2021/07/27 03:52:17;;;;;;;56.20;28.83;;;15.40;99.90;;;;;;5077904;28;20247;-66
2021/07/27 03:54:46;;;;;;;63.53;30.00;;;15.50;99.90;;;;;;5076588;28;20560;-66
2021/07/27 03:57:14;;;;;;;67.60;30.83;;;15.50;99.90;;;;;;5084084;28;20200;-66
2021/07/27 03:59:43;;;;;;;58.50;28.73;;;15.50;99.90;;;;;;5080561;28;20477;-66
2021/07/27 04:02:13;;;;;;;58.77;29.80;;;15.50;99.90;;;;;;5078275;28;20360;-66
2021/07/27 04:04:42;;;;;;;59.97;29.73;;;15.50;99.90;;;;;;5076140;28;20187;-66
2021/07/27 04:07:10;;;;;;;56.93;29.37;;;15.50;99.90;;;;;;5079253;28;20350;-66
2021/07/27 04:09:39;;;;;;;61.07;30.57;;;15.50;99.90;;;;;;5081094;28;20176;-66
2021/07/27 04:12:07;;;;;;;58.03;29.93;;;15.50;99.90;;;;;;5081383;28;20192;-66
2021/07/27 04:14:36;;;;;;;60.37;29.17;;;15.50;99.90;;;;;;5072306;28;20200;-66
2021/07/27 04:17:04;;;;;;;63.17;31.20;;;15.60;99.90;;;;;;5080594;28;20499;-66
2021/07/27 04:19:36;;;;;;;64.00;30.70;;;15.60;99.90;;;;;;5078355;28;20256;-65
2021/07/27 04:22:05;;;;;;;65.67;30.87;;;15.60;99.90;;;;;;5094131;28;20181;-66
2021/07/27 04:24:33;;;;;;;71.60;31.43;;;15.60;99.90;;;;;;5082044;28;20379;-66
2021/07/27 04:27:01;;;;;;;72.07;31.80;;;15.70;99.90;;;;;;5078402;28;20178;-66
2021/07/27 04:29:30;;;;;;;66.67;30.90;;;15.70;99.90;;;;;;5080737;28;20180;-66
2021/07/27 04:31:58;;;;;;;67.27;30.30;;;15.80;99.90;;;;;;5081353;28;20183;-66
2021/07/27 04:34:27;;;;;;;60.63;30.70;;;15.80;99.90;;;;;;5074517;28;20192;-66
2021/07/27 04:36:56;;;;;;;69.30;31.80;;;15.90;99.90;;;;;;5076484;28;20184;-66
2021/07/27 04:39:24;;;;;;;63.33;30.50;;;16.00;99.90;;;;;;5078906;28;20184;-66
2021/07/27 04:41:53;;;;;;;61.13;29.87;;;16.10;99.90;;;;;;5080173;28;20181;-65
2021/07/27 04:44:21;;;;;;;58.83;29.70;;;16.10;99.90;;;;;;5078813;28;20219;-66
2021/07/27 04:46:50;;;;;;;51.53;27.97;;;16.20;99.90;;;;;;5113041;28;20177;-65
2021/07/27 04:49:18;;;;;;;59.10;29.37;;;16.30;99.90;;;;;;5080595;28;20180;-66
2021/07/27 04:51:46;;;;;;;59.73;29.03;;;16.30;99.90;;;;;;5079537;28;20234;-66
2021/07/27 04:54:26;;;;;;;60.83;28.40;;;16.40;99.90;;;;;;5080156;28;20216;-66
2021/07/27 04:56:54;;;;;;;53.80;28.57;;;16.40;99.90;;;;;;5106256;28;20180;-65
2021/07/27 04:59:23;;;;;;;55.03;29.07;;;16.40;99.90;;;;;;5079267;28;20190;-66
2021/07/27 05:01:51;;;;;;;57.90;28.80;;;16.40;99.90;;;;;;5081705;28;20177;-65
2021/07/27 05:04:20;;;;;;;52.63;27.90;;;16.40;99.90;;;;;;5082755;28;20204;-66
2021/07/27 05:06:48;;;;;;;58.07;28.20;;;16.40;99.90;;;;;;5079358;28;20177;-66
2021/07/27 05:09:18;;;;;;;59.00;29.03;;;16.40;99.90;;;;;;5078547;28;20396;-66
2021/07/27 05:11:46;;;;;;;50.80;27.07;;;16.40;99.90;;;;;;5079082;28;20238;-66
2021/07/27 05:14:14;;;;;;;60.30;27.60;;;16.50;99.90;;;;;;5078543;28;20176;-66
2021/07/27 05:16:42;;;;;;;51.33;26.83;;;16.50;99.90;;;;;;5077805;28;20245;-67
2021/07/27 05:19:24;;;;;;;52.67;27.37;;;16.50;99.90;;;;;;5079247;28;20427;-66
2021/07/27 05:21:54;;;;;;;49.80;26.70;;;16.60;99.90;;;;;;5079147;28;20379;-65
2021/07/27 05:24:24;;;;;;;52.27;26.80;;;16.60;99.90;;;;;;5107939;28;20184;-66
2021/07/27 05:26:52;;;;;;;47.87;25.90;;;16.60;99.90;;;;;;5076872;28;20177;-65
2021/07/27 05:29:20;;;;;;;42.20;25.17;;;16.70;99.90;;;;;;5074541;28;20180;-65
2021/07/27 05:31:49;;;;;;;41.70;24.03;;;16.70;99.90;;;;;;5110218;28;20184;-66
2021/07/27 05:34:17;;;;;;;57.03;25.67;;;16.70;99.90;;;;;;5079528;28;20358;-66
2021/07/27 05:36:46;;;;;;;49.83;24.60;;;16.80;99.90;;;;;;5076236;28;20201;-66
2021/07/27 05:39:14;;;;;;;37.77;22.63;;;16.80;99.90;;;;;;5076539;28;20180;-66
2021/07/27 05:41:44;;;;;;;41.93;23.23;;;16.90;99.90;;;;;;5079590;28;20362;-65
2021/07/27 05:44:12;;;;;;;39.93;24.33;;;16.90;99.90;;;;;;5108102;28;20227;-66
2021/07/27 05:46:40;;;;;;;44.13;24.33;;;16.90;99.90;;;;;;5079487;28;20181;-66
2021/07/27 05:49:10;;;;;;;37.77;22.93;;;17.00;99.90;;;;;;5082158;28;20213;-66
2021/07/27 05:51:39;;;;;;;39.77;23.70;;;17.00;99.90;;;;;;5084950;28;20265;-66
2021/07/27 05:54:09;;;;;;;40.20;23.47;;;17.10;99.90;;;;;;5077830;28;20193;-66
2021/07/27 05:56:37;;;;;;;41.93;23.00;;;17.20;99.90;;;;;;5076223;28;20207;-66
2021/07/27 05:59:06;;;;;;;37.20;23.10;;;17.20;99.90;;;;;;5086087;28;20185;-66
2021/07/27 06:01:35;;;;;;;35.13;22.57;;;17.30;99.90;;;;;;5096600;28;20213;-66
2021/07/27 06:04:03;;;;;;;37.70;21.90;;;17.30;99.90;;;;;;5081455;28;20357;-66
2021/07/27 06:06:32;;;;;;;34.83;22.20;;;17.30;99.90;;;;;;5086697;28;20184;-66
2021/07/27 06:09:05;;;;;;;44.73;23.80;;;17.30;99.90;;;;;;5080606;28;20236;-66
2021/07/27 06:11:35;;;;;;;32.57;21.67;;;17.40;99.90;;;;;;5076644;28;20199;-66
2021/07/27 06:14:04;;;;;;;44.40;21.87;;;17.50;99.90;;;;;;5077690;28;20187;-66
2021/07/27 06:16:35;;;;;;;35.30;21.07;;;17.60;99.90;;;;;;5076124;28;20204;-66
2021/07/27 06:19:04;;;;;;;34.33;21.00;;;17.70;99.90;;;;;;5081426;28;20192;-66
2021/07/27 06:21:32;;;;;;;37.13;20.10;;;17.90;99.90;;;;;;5088668;28;20179;-65
2021/07/27 06:24:01;;;;;;;31.37;19.80;;;18.00;99.90;;;;;;5076027;28;20365;-66
2021/07/27 06:26:29;;;;;;;32.07;19.33;;;18.20;99.90;;;;;;5082599;28;20180;-66
2021/07/27 06:28:57;;;;;;;31.00;18.97;;;18.40;99.90;;;;;;5081004;28;20430;-65
2021/07/27 06:31:26;;;;;;;27.80;17.90;;;18.50;99.90;;;;;;5087227;28;20233;-66
2021/07/27 06:33:55;;;;;;;29.50;18.43;;;18.80;99.90;;;;;;5083124;28;20229;-65
2021/07/27 06:36:24;;;;;;;25.47;16.90;;;18.90;99.90;;;;;;5094773;28;20211;-66
2021/07/27 06:38:52;;;;;;;32.30;17.50;;;18.80;99.90;;;;;;5086464;28;20183;-66
2021/07/27 06:41:20;;;;;;;28.63;16.97;;;19.00;99.90;;;;;;5086655;28;20322;-66
2021/07/27 06:43:51;;;;;;;29.30;17.33;;;19.00;99.90;;;;;;5086444;28;20217;-66
2021/07/27 06:46:19;;;;;;;26.50;16.67;;;19.20;99.90;;;;;;5109642;28;20176;-66
2021/07/27 06:48:48;;;;;;;34.70;16.07;;;19.40;99.90;;;;;;5085025;28;20186;-66
2021/07/27 06:51:18;;;;;;;23.03;16.43;;;19.40;99.90;;;;;;5087520;28;20180;-66
2021/07/27 06:53:48;;;;;;;21.67;16.03;;;19.50;99.90;;;;;;5085805;28;20183;-66
2021/07/27 06:56:16;;;;;;;28.20;16.43;;;19.40;99.90;;;;;;5080515;28;20218;-65
2021/07/27 06:58:45;;;;;;;26.10;17.07;;;19.40;99.90;;;;;;5081196;28;20184;-66
2021/07/27 07:01:14;;;;;;;23.47;15.73;;;19.50;99.90;;;;;;5079205;28;20223;-66
2021/07/27 07:03:43;;;;;;;25.23;16.97;;;19.50;99.90;;;;;;5082797;28;20176;-65
2021/07/27 07:06:16;;;;;;;28.30;17.57;;;19.40;99.90;;;;;;5080149;28;20194;-65
2021/07/27 07:08:47;;;;;;;31.00;18.03;;;19.30;99.90;;;;;;5078607;28;20206;-65
2021/07/27 07:11:15;;;;;;;30.10;18.90;;;19.30;99.90;;;;;;5078497;28;20188;-65
2021/07/27 07:13:44;;;;;;;27.57;18.23;;;19.20;99.90;;;;;;5082475;28;20180;-66
2021/07/27 07:16:14;;;;;;;27.33;18.40;;;19.20;99.90;;;;;;5080561;28;20365;-65
2021/07/27 07:18:42;;;;;;;28.10;19.80;;;19.20;99.90;;;;;;5081060;28;21469;-65
2021/07/27 07:21:10;;;;;;;24.00;19.50;;;19.30;99.90;;;;;;5078688;28;20196;-65
2021/07/27 07:23:39;;;;;;;31.20;19.43;;;19.40;99.90;;;;;;5082457;28;20257;-65
2021/07/27 07:26:10;;;;;;;33.07;20.47;;;19.30;99.90;;;;;;5081591;28;20388;-65
2021/07/27 07:28:38;;;;;;;33.07;20.23;;;19.30;99.90;;;;;;5079130;28;20192;-65
2021/07/27 07:31:09;;;;;;;31.13;19.33;;;19.20;99.90;;;;;;5075441;28;20222;-65
2021/07/27 07:33:38;;;;;;;29.17;18.70;;;19.10;99.90;;;;;;5079803;28;20176;-65
2021/07/27 07:36:12;;;;;;;26.50;18.90;;;19.10;99.90;;;;;;5112231;28;20182;-65
2021/07/27 07:38:41;;;;;;;28.80;19.10;;;19.00;99.90;;;;;;5084159;28;20188;-66
2021/07/27 07:41:12;;;;;;;26.77;18.17;;;19.00;99.90;;;;;;5076828;28;20200;-65
2021/07/27 07:43:41;;;;;;;30.70;18.40;;;19.00;99.90;;;;;;5081171;28;20180;-66
2021/07/27 07:46:09;;;;;;;26.47;17.87;;;19.00;99.90;;;;;;5078886;28;20187;-65
2021/07/27 07:48:38;;;;;;;25.67;16.47;;;19.00;99.90;;;;;;5081287;28;20192;-65
2021/07/27 07:51:07;;;;;;;26.10;16.67;;;18.90;99.90;;;;;;5081638;28;20214;-65
2021/07/27 07:53:35;;;;;;;23.90;16.13;;;18.80;99.90;;;;;;5080343;28;20437;-65
2021/07/27 07:56:08;;;;;;;26.23;17.90;;;18.80;99.90;;;;;;5077248;28;20234;-66
2021/07/27 07:58:38;;;;;;;30.67;17.47;;;18.80;99.90;;;;;;5085123;28;20171;-66
2021/07/27 08:01:08;;;;;;;35.20;19.57;;;18.80;99.90;;;;;;5080219;28;20180;-66
2021/07/27 08:03:36;;;;;;;29.80;18.87;;;18.70;99.90;;;;;;5078708;28;20449;-65
2021/07/27 08:06:06;;;;;;;29.80;19.77;;;18.60;99.90;;;;;;5080095;28;20188;-65
2021/07/27 08:08:36;;;;;;;32.53;20.53;;;18.50;99.90;;;;;;5080837;28;20184;-66
2021/07/27 08:11:05;;;;;;;28.87;20.37;;;18.40;99.90;;;;;;5080693;28;20180;-65
2021/07/27 08:13:34;;;;;;;29.43;19.93;;;18.40;99.90;;;;;;5080550;28;20180;-65
2021/07/27 08:16:07;;;;;;;30.10;20.17;;;18.50;99.90;;;;;;5078305;28;20185;-65
2021/07/27 08:18:36;;;;;;;30.37;20.30;;;18.50;99.90;;;;;;5080626;28;20204;-65
2021/07/27 08:21:04;;;;;;;28.50;21.13;;;18.60;99.90;;;;;;5082657;28;20341;-65
2021/07/27 08:23:33;;;;;;;32.37;20.23;;;18.70;99.90;;;;;;5080478;28;20184;-65
2021/07/27 08:26:04;;;;;;;24.97;17.93;;;18.90;99.90;;;;;;5083261;28;20449;-65
2021/07/27 08:28:32;;;;;;;24.77;17.53;;;19.10;99.90;;;;;;5109127;28;20172;-66
2021/07/27 08:31:00;;;;;;;26.17;18.03;;;19.50;99.90;;;;;;5082164;28;20184;-64
2021/07/27 08:33:30;;;;;;;27.77;19.10;;;19.70;99.90;;;;;;5078125;28;20241;-65
2021/07/27 08:35:58;;;;;;;27.50;18.13;;;19.90;99.90;;;;;;5077919;28;20195;-66
2021/07/27 08:38:29;;;;;;;27.40;17.70;;;20.00;99.90;;;;;;5080884;28;20204;-65
2021/07/27 08:40:58;;;;;;;28.77;17.97;;;20.00;99.90;;;;;;5084930;28;20192;-64
2021/07/27 08:43:26;;;;;;;28.40;17.73;;;19.70;99.90;;;;;;5076000;28;20184;-64
2021/07/27 08:45:55;;;;;;;30.27;18.60;;;19.60;99.90;;;;;;5076315;28;20191;-64
2021/07/27 08:48:23;;;;;;;26.27;17.90;;;19.50;99.90;;;;;;5079071;28;20172;-64
2021/07/27 08:50:53;;;;;;;24.00;17.00;;;19.40;99.90;;;;;;5080511;28;20483;-64
2021/07/27 08:53:22;;;;;;;29.10;19.03;;;19.30;99.90;;;;;;5080812;28;20188;-64
2021/07/27 08:55:50;;;;;;;29.17;18.13;;;19.30;99.90;;;;;;5079474;28;20219;-64
2021/07/27 08:58:19;;;;;;;29.67;18.70;;;19.30;99.90;;;;;;5083763;28;20204;-64
2021/07/27 09:00:47;;;;;;;29.03;18.77;;;19.30;99.90;;;;;;5077761;28;20177;-65
2021/07/27 09:03:18;;;;;;;28.13;17.70;;;19.40;99.90;;;;;;5079462;28;20204;-64
2021/07/27 09:05:47;;;;;;;29.13;18.43;;;19.40;99.90;;;;;;5076164;28;20207;-64
2021/07/27 09:08:17;;;;;;;27.73;18.30;;;19.50;99.90;;;;;;5076816;28;20418;-64
2021/07/27 09:10:45;;;;;;;25.63;17.50;;;19.40;99.90;;;;;;5088775;28;20395;-64
2021/07/27 09:13:15;;;;;;;24.80;18.37;;;19.50;99.90;;;;;;5077530;28;20260;-64
2021/07/27 09:15:45;;;;;;;27.63;17.37;;;19.40;99.90;;;;;;5094246;28;20183;-66
2021/07/27 09:18:15;;;;;;;27.50;18.77;;;19.40;99.90;;;;;;5078691;28;20203;-64
2021/07/27 09:20:47;;;;;;;27.10;18.27;;;19.40;99.90;;;;;;5076864;28;20223;-68
2021/07/27 09:23:18;;;;;;;29.33;19.57;;;19.20;99.90;;;;;;5077902;28;20195;-64
2021/07/27 09:25:48;;;;;;;27.30;19.43;;;19.30;99.90;;;;;;5070846;28;20177;-66
2021/07/27 09:28:16;;;;;;;28.07;18.77;;;19.30;99.90;;;;;;5080721;28;20351;-66
2021/07/27 09:30:46;;;;;;;33.43;20.23;;;19.30;99.90;;;;;;5080095;28;20188;-65
2021/07/27 09:33:15;;;;;;;29.57;19.40;;;19.40;99.90;;;;;;5079777;28;20341;-65
2021/07/27 09:35:45;;;;;;;30.07;20.53;;;19.50;99.90;;;;;;5078375;28;20184;-66
2021/07/27 09:38:15;;;;;;;27.17;18.87;;;19.60;99.90;;;;;;5077847;28;20372;-65
2021/07/27 09:40:53;;;;;;;24.87;18.77;;;19.60;99.90;;;;;;5086139;28;20325;-65
2021/07/27 09:43:42;;;;;;;29.47;18.47;;;19.80;99.90;;;;;;5079568;28;20263;-66
2021/07/27 09:46:11;;;;;;;26.93;18.40;;;19.80;99.90;;;;;;5078683;28;20180;-65
2021/07/27 09:48:41;;;;;;;28.67;18.80;;;20.00;99.90;;;;;;5078298;28;20448;-65
2021/07/27 09:51:11;;;;;;;27.70;18.57;;;20.10;99.90;;;;;;5078114;28;20371;-65
2021/07/27 09:53:42;;;;;;;24.20;18.00;;;20.20;99.90;;;;;;5077501;28;20176;-65
2021/07/27 09:56:12;;;;;;;22.23;16.17;;;20.30;99.90;;;;;;5077420;28;20219;-65
2021/07/27 09:58:41;;;;;;;27.20;17.47;;;20.40;99.90;;;;;;5079398;28;20200;-65
2021/07/27 10:01:12;;;;;;;25.40;17.30;;;20.30;99.90;;;;;;5077667;28;20229;-65
2021/07/27 10:03:50;;;;;;;27.93;18.07;;;20.30;99.90;;;;;;5077007;28;20189;-66
2021/07/27 10:06:25;;;;;;;25.47;16.73;;;20.50;99.90;;;;;;5076091;28;20237;-66
2021/07/27 10:08:59;;;;;;;23.90;16.00;;;20.80;99.90;;;;;;5081616;28;20307;-66
2021/07/27 10:11:40;;;;;;;26.03;16.40;;;20.90;99.90;;;;;;5081781;28;20461;-66
2021/07/27 10:14:10;;;;;;;22.73;15.20;;;20.90;99.90;;;;;;5077582;28;20183;-66
2021/07/27 10:16:39;;;;;;;22.27;15.63;;;21.00;99.90;;;;;;5076403;28;20507;-66
2021/07/27 10:19:18;;;;;;;19.10;15.07;;;21.30;99.90;;;;;;5078365;28;20466;-66
2021/07/27 10:22:01;;;;;;;22.17;15.60;;;21.50;99.90;;;;;;5078917;28;20187;-66
2021/07/27 10:24:36;;;;;;;22.40;15.43;;;21.80;99.90;;;;;;5081037;28;20175;-66
2021/07/27 10:27:10;;;;;;;22.47;14.70;;;21.80;99.90;;;;;;5074770;28;20176;-66
2021/07/27 10:29:38;;;;;;;20.27;14.17;;;22.00;99.90;;;;;;5077169;28;20173;-66
2021/07/27 10:32:14;;;;;;;22.30;14.47;;;22.10;99.90;;;;;;5078200;28;20180;-65
2021/07/27 10:34:44;;;;;;;22.70;14.43;;;22.20;99.90;;;;;;5075448;28;20263;-66
2021/07/27 10:37:14;;;;;;;17.17;12.97;;;22.40;99.90;;;;;;5094043;28;20208;-66
2021/07/27 10:39:51;;;;;;;21.23;14.10;;;22.40;99.90;;;;;;5080417;28;20232;-65
2021/07/27 10:42:21;;;;;;;23.20;14.40;;;22.40;99.90;;;;;;5073681;28;20176;-66
2021/07/27 10:44:51;;;;;;;20.83;13.43;;;22.30;99.90;;;;;;5078352;28;20189;-65
2021/07/27 10:47:20;;;;;;;18.57;14.27;;;22.70;99.90;;;;;;5076480;28;20180;-66
2021/07/27 10:50:00;;;;;;;18.30;12.83;;;22.90;99.90;;;;;;5075460;28;20178;-66
2021/07/27 10:52:28;;;;;;;18.20;13.20;;;23.10;99.90;;;;;;5076303;28;20429;-66
2021/07/27 10:54:58;;;;;;;19.53;12.93;;;23.20;99.90;;;;;;5076711;28;20272;-66
2021/07/27 10:57:35;;;;;;;16.70;12.20;;;23.30;99.90;;;;;;5076317;28;20241;-66
2021/07/27 11:00:05;;;;;;;18.87;11.93;;;23.30;99.90;;;;;;5078167;28;20243;-66
2021/07/27 11:02:33;;;;;;;20.07;11.80;;;23.30;99.90;;;;;;5076990;28;20343;-65
2021/07/27 11:05:02;;;;;;;15.63;12.23;;;23.40;99.90;;;;;;5073099;28;20231;-66
2021/07/27 11:07:34;;;;;;;17.83;11.93;;;23.40;99.90;;;;;;5075859;28;20314;-65
2021/07/27 11:10:05;;;;;;;19.07;11.40;;;23.40;99.90;;;;;;5075643;28;20188;-66
2021/07/27 11:12:36;;;;;;;17.30;11.17;;;23.50;99.90;;;;;;5076482;28;20190;-66
2021/07/27 11:15:10;;;;;;;13.90;10.87;;;23.50;99.90;;;;;;5074030;28;20182;-65
2021/07/27 11:17:39;;;;;;;11.97;9.87;;;23.80;99.90;;;;;;5115420;28;20178;-65
2021/07/27 11:20:09;;;;;;;12.87;9.40;;;23.70;99.90;;;;;;5111703;28;20447;-64
2021/07/27 11:22:41;;;;;;;14.90;9.73;;;23.50;99.90;;;;;;5077830;28;20275;-65
2021/07/27 11:25:10;;;;;;;15.87;9.70;;;23.50;99.90;;;;;;5077466;28;20228;-65
2021/07/27 11:27:40;;;;;;;11.27;9.43;;;23.40;99.90;;;;;;5076572;28;20182;-66
2021/07/27 11:30:12;;;;;;;13.23;8.63;;;23.50;99.90;;;;;;5080813;28;20183;-64
2021/07/27 11:32:42;;;;;;;15.13;8.67;;;23.50;99.90;;;;;;5078381;28;20411;-65
2021/07/27 11:35:12;;;;;;;14.17;9.63;;;23.50;99.90;;;;;;5082286;28;20181;-66
2021/07/27 11:37:42;;;;;;;16.27;9.63;;;23.20;99.90;;;;;;5081127;28;20336;-65
2021/07/27 11:40:23;;;;;;;14.40;9.87;;;23.10;99.90;;;;;;5082301;28;20204;-65
2021/07/27 11:43:05;;;;;;;14.47;9.40;;;23.10;99.90;;;;;;5080110;28;20178;-65
2021/07/27 11:45:35;;;;;;;14.30;9.57;;;23.10;99.90;;;;;;5080414;28;20202;-66
2021/07/27 11:48:03;;;;;;;13.63;9.70;;;23.00;99.90;;;;;;5082107;28;20190;-66
2021/07/27 11:50:33;;;;;;;14.50;9.03;;;23.20;99.90;;;;;;5079348;28;20184;-66
2021/07/27 11:53:04;;;;;;;17.20;9.20;;;23.40;99.90;;;;;;5079794;28;20428;-65
2021/07/27 11:55:34;;;;;;;12.53;9.83;;;23.40;99.90;;;;;;5075883;28;20211;-66
2021/07/27 11:58:04;;;;;;;15.90;9.40;;;23.40;99.90;;;;;;5081496;28;20201;-66
2021/07/27 12:00:36;;;;;;;15.03;9.70;;;23.40;99.90;;;;;;5111552;28;20286;-66
2021/07/27 12:03:06;;;;;;;15.50;10.40;;;23.50;99.90;;;;;;5093785;28;20204;-66
2021/07/27 12:05:35;;;;;;;16.00;11.33;;;23.40;99.90;;;;;;5086192;28;20277;-65
2021/07/27 12:08:04;;;;;;;13.83;10.10;;;23.40;99.90;;;;;;5077103;28;20194;-65
2021/07/27 12:10:32;;;;;;;13.97;10.70;;;23.50;99.90;;;;;;5076792;28;20177;-66
2021/07/27 12:13:01;;;;;;;16.50;10.30;;;23.60;99.90;;;;;;5096135;28;20435;-65
2021/07/27 12:15:30;;;;;;;18.20;10.53;;;23.60;99.90;;;;;;5112570;28;20431;-65
2021/07/27 12:17:59;;;;;;;13.33;10.80;;;23.70;99.90;;;;;;5078021;28;20204;-65
2021/07/27 12:20:31;;;;;;;12.67;10.83;;;23.70;99.90;;;;;;5076725;28;20202;-65
2021/07/27 12:23:00;;;;;;;14.13;10.40;;;23.60;99.90;;;;;;5079634;28;20431;-65
2021/07/27 12:25:28;;;;;;;15.73;10.63;;;23.50;99.90;;;;;;5079580;28;20430;-68
2021/07/27 12:27:57;;;;;;;14.10;10.57;;;23.40;99.90;;;;;;5078435;28;20190;-65
2021/07/27 12:30:29;;;;;;;14.13;10.57;;;23.50;99.90;;;;;;5076083;28;20187;-65
2021/07/27 12:32:59;;;;;;;14.67;10.63;;;23.50;99.90;;;;;;5078259;28;20185;-65
2021/07/27 12:35:27;;;;;;;12.10;10.43;;;23.40;99.90;;;;;;5079545;28;20427;-65
2021/07/27 12:37:56;;;;;;;14.43;10.20;;;23.50;99.90;;;;;;5080245;28;20188;-64
2021/07/27 12:40:24;;;;;;;14.23;10.50;;;23.60;99.90;;;;;;5075817;28;20214;-65
2021/07/27 12:42:52;;;;;;;13.10;10.37;;;23.60;99.90;;;;;;5076494;28;20203;-65
2021/07/27 12:45:21;;;;;;;12.87;9.83;;;23.80;99.90;;;;;;5076153;28;20178;-65
2021/07/27 12:47:49;;;;;;;12.80;9.70;;;23.90;99.90;;;;;;5079569;28;20186;-65
2021/07/27 12:50:19;;;;;;;10.60;9.60;;;24.00;99.90;;;;;;5077696;28;20194;-66
2021/07/27 12:52:47;;;;;;;12.93;9.40;;;24.00;99.90;;;;;;5109151;28;20533;-65
2021/07/27 12:55:15;;;;;;;13.57;9.97;;;23.80;99.90;;;;;;5077031;28;20226;-65
2021/07/27 12:57:43;;;;;;;23.03;11.33;;;23.60;99.90;;;;;;5081695;28;20568;-65
2021/07/27 13:00:13;;;;;;;13.47;9.53;;;23.40;99.90;;;;;;5079472;28;20232;-66